Time;durP1;ratioP1;P1;durP2;ratioP2;P2;SDS_P1;SDS_P2;PMS_P1;PMS_P2;Temp;Humidity;BMP_temperature;BMP_pressure;BME280_temperature;BME280_humidity;BME280_pressure;Samples;Min_cycle;Max_cycle;Signal;HPM_P1;HPM_P2
2024/02/25 00:02:16;;;;;;;0.30;0.30;;;;;;;;;;5065461;28;20223;-78
2024/02/25 00:04:42;;;;;;;0.30;0.30;;;;;;;;;;5049393;28;20313;-78
2024/02/25 00:07:09;;;;;;;0.30;0.30;;;;;;;;;;5050184;28;20229;-78
2024/02/25 00:09:35;;;;;;;0.30;0.30;;;;;;;;;;5045986;28;20223;-78
2024/02/25 00:12:02;;;;;;;0.30;0.30;;;;;;;;;;5047135;28;20695;-77
2024/02/25 00:14:29;;;;;;;0.30;0.30;;;;;;;;;;5040977;28;20669;-75
2024/02/25 00:16:56;;;;;;;0.30;0.30;;;;;;;;;;5018389;28;20224;-74
2024/02/25 00:19:23;;;;;;;0.90;0.90;;;;;;;;;;5039542;28;20224;-75
2024/02/25 00:21:50;;;;;;;0.30;0.30;;;;;;;;;;5047872;28;20233;-74
2024/02/25 00:24:17;;;;;;;0.53;0.53;;;;;;;;;;5067132;28;20249;-74
2024/02/25 00:26:43;;;;;;;0.30;0.30;;;;;;;;;;5062908;28;20743;-75
2024/02/25 00:29:14;;;;;;;0.30;0.30;;;;;;;;;;5058093;28;20285;-74
2024/02/25 00:31:42;;;;;;;0.30;0.30;;;;;;;;;;5057230;28;20703;-74
2024/02/25 00:34:09;;;;;;;0.30;0.30;;;;;;;;;;5057570;28;22000;-75
2024/02/25 00:36:38;;;;;;;0.30;0.30;;;;;;;;;;5055375;28;20231;-76
2024/02/25 00:39:04;;;;;;;0.33;0.33;;;;;;;;;;5065144;28;20627;-75
2024/02/25 00:41:31;;;;;;;0.27;0.27;;;;;;;;;;5062578;28;20305;-75
2024/02/25 00:43:58;;;;;;;0.30;0.30;;;;;;;;;;5060930;28;20301;-75
2024/02/25 00:46:24;;;;;;;0.40;0.40;;;;;;;;;;5058305;28;20223;-75
2024/02/25 00:48:50;;;;;;;0.40;0.40;;;;;;;;;;5063790;28;20227;-74
2024/02/25 00:51:17;;;;;;;0.30;0.30;;;;;;;;;;5057025;28;20247;-74
2024/02/25 00:53:44;;;;;;;0.33;0.33;;;;;;;;;;5066155;28;20234;-75
2024/02/25 00:56:10;;;;;;;0.30;0.30;;;;;;;;;;5054318;28;20235;-74
2024/02/25 00:58:38;;;;;;;0.30;0.30;;;;;;;;;;5061721;28;20227;-74
2024/02/25 01:01:05;;;;;;;0.30;0.30;;;;;;;;;;5062165;28;20234;-74
2024/02/25 01:03:33;;;;;;;0.40;0.40;;;;;;;;;;5046617;28;20222;-74
2024/02/25 01:05:59;;;;;;;0.27;0.27;;;;;;;;;;5059684;28;20217;-76
2024/02/25 01:08:26;;;;;;;0.30;0.30;;;;;;;;;;5043781;28;21424;-75
2024/02/25 01:10:52;;;;;;;0.40;0.40;;;;;;;;;;5060676;28;20310;-75
2024/02/25 01:13:19;;;;;;;0.30;0.30;;;;;;;;;;5043845;28;20223;-76
2024/02/25 01:15:45;;;;;;;0.30;0.30;;;;;;;;;;5052466;28;20236;-74
2024/02/25 01:18:12;;;;;;;0.73;0.70;;;;;;;;;;5054186;28;20641;-76
2024/02/25 01:20:39;;;;;;;0.30;0.30;;;;;;;;;;5038574;28;20265;-74
2024/02/25 01:23:05;;;;;;;0.30;0.30;;;;;;;;;;5055456;28;20251;-75
2024/02/25 01:25:32;;;;;;;0.40;0.40;;;;;;;;;;5041481;28;20218;-75
2024/02/25 01:27:58;;;;;;;0.50;0.50;;;;;;;;;;5069180;28;20222;-74
2024/02/25 01:30:25;;;;;;;1.43;0.63;;;;;;;;;;5056010;28;20223;-74
2024/02/25 01:32:51;;;;;;;0.30;0.30;;;;;;;;;;5062367;28;20234;-76
2024/02/25 01:35:18;;;;;;;0.30;0.30;;;;;;;;;;5057472;28;20250;-75
2024/02/25 01:37:45;;;;;;;0.30;0.30;;;;;;;;;;5045737;28;20227;-74
2024/02/25 01:40:11;;;;;;;0.30;0.30;;;;;;;;;;5052641;28;20222;-75
2024/02/25 01:42:38;;;;;;;0.30;0.30;;;;;;;;;;5055931;28;20641;-75
2024/02/25 01:45:06;;;;;;;0.30;0.30;;;;;;;;;;5040656;28;20225;-74
2024/02/25 01:47:33;;;;;;;0.20;0.20;;;;;;;;;;5058419;28;20226;-76
2024/02/25 01:50:00;;;;;;;0.30;0.30;;;;;;;;;;5037929;28;20263;-74
2024/02/25 01:52:27;;;;;;;0.30;0.30;;;;;;;;;;5037285;28;20227;-75
2024/02/25 01:54:55;;;;;;;0.30;0.30;;;;;;;;;;5053579;28;20799;-75
2024/02/25 01:57:22;;;;;;;0.30;0.30;;;;;;;;;;5049063;28;20285;-74
2024/02/25 01:59:49;;;;;;;0.30;0.30;;;;;;;;;;5064451;28;20223;-75
2024/02/25 02:02:16;;;;;;;0.30;0.30;;;;;;;;;;5055329;28;20219;-75
2024/02/25 02:04:42;;;;;;;0.30;0.30;;;;;;;;;;5056275;28;20219;-74
2024/02/25 02:07:09;;;;;;;0.30;0.30;;;;;;;;;;5058840;28;20233;-75
2024/02/25 02:09:35;;;;;;;0.50;0.50;;;;;;;;;;5071710;28;20226;-74
2024/02/25 02:12:03;;;;;;;0.30;0.30;;;;;;;;;;5059196;28;20223;-75
2024/02/25 02:14:30;;;;;;;0.30;0.30;;;;;;;;;;5060610;28;20747;-76
2024/02/25 02:16:57;;;;;;;0.20;0.20;;;;;;;;;;5058551;28;20272;-74
2024/02/25 02:19:24;;;;;;;0.30;0.30;;;;;;;;;;5056401;28;20254;-75
2024/02/25 02:21:54;;;;;;;0.30;0.30;;;;;;;;;;5059369;28;20253;-75
2024/02/25 02:24:20;;;;;;;0.30;0.30;;;;;;;;;;5051422;28;20218;-75
2024/02/25 02:26:47;;;;;;;0.40;0.40;;;;;;;;;;5028757;28;20672;-74
2024/02/25 02:29:14;;;;;;;0.53;0.53;;;;;;;;;;5042906;28;20231;-74
2024/02/25 02:31:40;;;;;;;0.30;0.30;;;;;;;;;;5044151;28;20230;-74
2024/02/25 02:34:07;;;;;;;0.20;0.20;;;;;;;;;;5045476;28;20219;-75
2024/02/25 02:36:33;;;;;;;0.30;0.30;;;;;;;;;;5022459;28;20331;-74
2024/02/25 02:39:00;;;;;;;0.50;0.50;;;;;;;;;;5045157;28;20213;-74
2024/02/25 02:41:26;;;;;;;0.30;0.30;;;;;;;;;;5051382;28;20226;-75
2024/02/25 02:43:55;;;;;;;0.30;0.30;;;;;;;;;;5050998;28;20243;-74
2024/02/25 02:46:22;;;;;;;0.30;0.30;;;;;;;;;;5074670;28;20235;-74
2024/02/25 02:48:48;;;;;;;0.33;0.33;;;;;;;;;;5074855;28;20242;-74
2024/02/25 02:51:15;;;;;;;0.30;0.30;;;;;;;;;;5068654;28;20231;-74
2024/02/25 02:53:42;;;;;;;0.30;0.30;;;;;;;;;;5078038;28;20226;-74
2024/02/25 02:56:09;;;;;;;0.30;0.30;;;;;;;;;;5047242;28;20305;-76
2024/02/25 02:58:36;;;;;;;0.37;0.37;;;;;;;;;;5057428;28;20242;-74
2024/02/25 03:01:03;;;;;;;0.20;0.20;;;;;;;;;;5048537;28;20227;-74
2024/02/25 03:03:30;;;;;;;0.30;0.30;;;;;;;;;;5058679;28;20231;-76
2024/02/25 03:05:56;;;;;;;0.47;0.47;;;;;;;;;;5063669;28;20655;-74
2024/02/25 03:08:24;;;;;;;0.30;0.30;;;;;;;;;;5061826;28;20234;-75
2024/02/25 03:10:51;;;;;;;0.50;0.50;;;;;;;;;;5061326;28;20231;-74
2024/02/25 03:13:17;;;;;;;0.30;0.30;;;;;;;;;;5051612;28;20222;-75
2024/02/25 03:15:44;;;;;;;0.30;0.30;;;;;;;;;;5059865;28;20237;-74
2024/02/25 03:18:10;;;;;;;0.60;0.60;;;;;;;;;;5065384;28;20226;-75
2024/02/25 03:20:37;;;;;;;0.30;0.30;;;;;;;;;;5057633;28;20219;-75
2024/02/25 03:23:04;;;;;;;0.30;0.30;;;;;;;;;;5068636;28;20656;-74
2024/02/25 03:25:31;;;;;;;0.30;0.30;;;;;;;;;;5070753;28;20232;-74
2024/02/25 03:27:57;;;;;;;0.27;0.27;;;;;;;;;;5048811;28;20227;-74
2024/02/25 03:30:26;;;;;;;0.30;0.30;;;;;;;;;;5051357;28;20676;-74
2024/02/25 03:32:52;;;;;;;0.30;0.30;;;;;;;;;;5069798;28;20234;-76
2024/02/25 03:35:18;;;;;;;0.20;0.20;;;;;;;;;;5054377;28;20215;-75
2024/02/25 03:37:45;;;;;;;0.30;0.30;;;;;;;;;;5047087;28;20231;-75
2024/02/25 03:40:11;;;;;;;0.73;0.73;;;;;;;;;;5048813;28;20231;-74
2024/02/25 03:42:40;;;;;;;0.20;0.20;;;;;;;;;;5060835;28;20226;-75
2024/02/25 03:45:07;;;;;;;0.30;0.30;;;;;;;;;;5062635;28;20293;-74
2024/02/25 03:47:34;;;;;;;0.30;0.30;;;;;;;;;;5067680;28;20288;-75
2024/02/25 03:50:00;;;;;;;0.30;0.30;;;;;;;;;;5056634;28;20703;-75
2024/02/25 03:52:27;;;;;;;0.30;0.30;;;;;;;;;;5057592;28;20227;-76
2024/02/25 03:54:54;;;;;;;0.30;0.30;;;;;;;;;;5035074;28;20227;-77
2024/02/25 03:57:20;;;;;;;0.30;0.30;;;;;;;;;;5034913;28;20228;-75
2024/02/25 03:59:47;;;;;;;0.20;0.20;;;;;;;;;;5043149;28;20230;-75
2024/02/25 04:02:14;;;;;;;0.30;0.30;;;;;;;;;;5026895;28;20315;-75
2024/02/25 04:04:45;;;;;;;0.30;0.30;;;;;;;;;;5023031;28;20224;-74
2024/02/25 04:07:13;;;;;;;0.80;0.73;;;;;;;;;;5037533;28;20227;-75
2024/02/25 04:09:41;;;;;;;0.30;0.30;;;;;;;;;;5048517;28;20223;-74
2024/02/25 04:12:07;;;;;;;0.30;0.30;;;;;;;;;;5020957;28;20232;-74
2024/02/25 04:14:34;;;;;;;0.30;0.30;;;;;;;;;;5018836;28;20227;-74
2024/02/25 04:17:02;;;;;;;0.30;0.30;;;;;;;;;;5039003;28;20277;-74
2024/02/25 04:19:28;;;;;;;0.30;0.30;;;;;;;;;;5037584;28;20593;-74
2024/02/25 04:21:55;;;;;;;0.30;0.30;;;;;;;;;;5043044;28;20228;-74
2024/02/25 04:24:21;;;;;;;0.50;0.50;;;;;;;;;;5039556;28;20788;-74
2024/02/25 04:26:48;;;;;;;0.30;0.30;;;;;;;;;;5047066;28;20671;-74
2024/02/25 04:29:15;;;;;;;0.30;0.30;;;;;;;;;;5042895;28;20224;-74
2024/02/25 04:31:45;;;;;;;0.30;0.30;;;;;;;;;;5019031;28;20708;-74
2024/02/25 04:34:13;;;;;;;0.30;0.30;;;;;;;;;;5036757;28;20219;-74
2024/02/25 04:36:39;;;;;;;0.40;0.40;;;;;;;;;;5049562;28;20225;-75
2024/02/25 04:39:08;;;;;;;0.50;0.50;;;;;;;;;;5047049;28;20273;-75
2024/02/25 04:41:35;;;;;;;0.30;0.30;;;;;;;;;;5042627;28;20223;-75
2024/02/25 04:44:02;;;;;;;0.53;0.53;;;;;;;;;;5048449;28;20338;-75
2024/02/25 04:46:28;;;;;;;0.30;0.30;;;;;;;;;;5034535;28;20298;-75
2024/02/25 04:48:54;;;;;;;0.30;0.30;;;;;;;;;;5040048;28;20231;-74
2024/02/25 04:51:21;;;;;;;0.30;0.30;;;;;;;;;;5043338;28;20239;-75
2024/02/25 04:53:55;;;;;;;0.30;0.30;;;;;;;;;;5041288;28;20230;-75
2024/02/25 04:56:27;;;;;;;0.50;0.50;;;;;;;;;;5040394;28;20226;-75
2024/02/25 04:58:53;;;;;;;2.90;1.07;;;;;;;;;;5033112;28;20235;-75
2024/02/25 05:01:20;;;;;;;0.60;0.60;;;;;;;;;;5044198;28;20223;-75
2024/02/25 05:03:47;;;;;;;0.30;0.30;;;;;;;;;;5046710;28;20231;-75
2024/02/25 05:06:14;;;;;;;0.30;0.30;;;;;;;;;;5046016;28;20342;-74
2024/02/25 05:08:40;;;;;;;0.30;0.30;;;;;;;;;;5025591;28;20239;-74
2024/02/25 05:11:07;;;;;;;0.87;0.87;;;;;;;;;;5046052;28;20222;-76
2024/02/25 05:13:33;;;;;;;0.30;0.30;;;;;;;;;;5043784;28;20242;-74
2024/02/25 05:16:04;;;;;;;0.40;0.40;;;;;;;;;;5025105;28;20311;-75
2024/02/25 05:18:30;;;;;;;0.83;0.63;;;;;;;;;;5037376;28;20242;-77
2024/02/25 05:20:57;;;;;;;0.30;0.30;;;;;;;;;;5076544;28;20216;-74
2024/02/25 05:23:24;;;;;;;0.60;0.60;;;;;;;;;;5062992;28;20231;-75
2024/02/25 05:25:50;;;;;;;0.30;0.30;;;;;;;;;;5058708;28;20228;-74
2024/02/25 05:28:17;;;;;;;0.30;0.30;;;;;;;;;;5049836;28;20231;-74
2024/02/25 05:30:44;;;;;;;0.57;0.50;;;;;;;;;;5050859;28;20234;-75
2024/02/25 05:33:10;;;;;;;0.37;0.37;;;;;;;;;;5057354;28;20238;-74
2024/02/25 05:35:39;;;;;;;0.33;0.33;;;;;;;;;;5042693;28;20230;-74
2024/02/25 05:38:06;;;;;;;0.60;0.60;;;;;;;;;;5044188;28;20598;-74
2024/02/25 05:40:32;;;;;;;0.30;0.30;;;;;;;;;;5030612;28;20224;-75
2024/02/25 05:42:59;;;;;;;0.33;0.33;;;;;;;;;;5040020;28;20222;-75
2024/02/25 05:45:25;;;;;;;0.43;0.43;;;;;;;;;;5057851;28;20231;-74
2024/02/25 05:47:52;;;;;;;0.30;0.30;;;;;;;;;;5055262;28;20236;-75
2024/02/25 05:50:18;;;;;;;1.37;0.87;;;;;;;;;;5048258;28;20242;-75
2024/02/25 05:52:45;;;;;;;1.60;0.83;;;;;;;;;;5020960;28;20236;-75
2024/02/25 05:55:11;;;;;;;0.30;0.30;;;;;;;;;;5031723;28;20231;-75
2024/02/25 05:57:40;;;;;;;1.10;1.00;;;;;;;;;;5028677;28;20233;-75
2024/02/25 06:00:08;;;;;;;0.33;0.33;;;;;;;;;;5054524;28;20223;-74
2024/02/25 06:02:36;;;;;;;0.43;0.43;;;;;;;;;;5044368;28;20219;-75
2024/02/25 06:05:03;;;;;;;0.30;0.30;;;;;;;;;;5044886;28;20229;-74
2024/02/25 06:07:29;;;;;;;0.30;0.30;;;;;;;;;;5027976;28;20305;-75
2024/02/25 06:09:56;;;;;;;0.50;0.50;;;;;;;;;;5057364;28;20231;-76
2024/02/25 06:12:23;;;;;;;0.87;0.87;;;;;;;;;;5052067;28;20219;-76
2024/02/25 06:14:49;;;;;;;0.40;0.40;;;;;;;;;;5048488;28;21030;-76
2024/02/25 06:17:16;;;;;;;0.40;0.40;;;;;;;;;;5062835;28;20708;-75
2024/02/25 06:19:43;;;;;;;0.57;0.57;;;;;;;;;;5046780;28;20220;-74
2024/02/25 06:22:09;;;;;;;0.30;0.30;;;;;;;;;;5049415;28;20280;-75
2024/02/25 06:24:35;;;;;;;0.20;0.20;;;;;;;;;;5048538;28;20270;-74
2024/02/25 06:27:02;;;;;;;0.30;0.30;;;;;;;;;;5034321;28;20225;-75
2024/02/25 06:29:29;;;;;;;0.50;0.50;;;;;;;;;;5042129;28;20303;-74
2024/02/25 06:31:57;;;;;;;0.40;0.40;;;;;;;;;;5023378;28;20227;-76
2024/02/25 06:34:24;;;;;;;0.50;0.50;;;;;;;;;;5022203;28;20306;-74
2024/02/25 06:36:50;;;;;;;0.30;0.30;;;;;;;;;;5048206;28;20254;-74
2024/02/25 06:39:17;;;;;;;0.53;0.53;;;;;;;;;;5061843;28;20707;-74
2024/02/25 06:41:44;;;;;;;0.40;0.40;;;;;;;;;;5068923;28;20215;-75
2024/02/25 06:44:10;;;;;;;0.50;0.50;;;;;;;;;;5044992;28;20723;-75
2024/02/25 06:46:40;;;;;;;0.40;0.40;;;;;;;;;;5044032;28;20231;-75
2024/02/25 06:49:07;;;;;;;0.30;0.30;;;;;;;;;;5054033;28;20227;-75
2024/02/25 06:51:34;;;;;;;0.40;0.40;;;;;;;;;;5061180;28;20222;-75
2024/02/25 06:54:00;;;;;;;0.50;0.50;;;;;;;;;;5070750;28;20580;-75
2024/02/25 06:56:31;;;;;;;0.50;0.50;;;;;;;;;;5056024;28;20259;-75
2024/02/25 06:58:58;;;;;;;0.30;0.30;;;;;;;;;;5056557;28;20233;-75
2024/02/25 07:01:24;;;;;;;0.40;0.40;;;;;;;;;;5060824;28;20226;-74
2024/02/25 07:03:51;;;;;;;0.40;0.40;;;;;;;;;;5056770;28;20218;-74
2024/02/25 07:06:18;;;;;;;0.83;0.83;;;;;;;;;;5055699;28;20727;-74
2024/02/25 07:08:44;;;;;;;0.30;0.30;;;;;;;;;;5058821;28;20296;-75
2024/02/25 07:11:19;;;;;;;0.67;0.67;;;;;;;;;;5034614;28;20778;-75
2024/02/25 07:13:47;;;;;;;0.30;0.30;;;;;;;;;;5053384;28;20229;-75
2024/02/25 07:16:14;;;;;;;0.30;0.30;;;;;;;;;;5049975;28;20223;-74
2024/02/25 07:18:41;;;;;;;0.30;0.30;;;;;;;;;;5047567;28;20231;-75
2024/02/25 07:21:09;;;;;;;0.30;0.30;;;;;;;;;;5032573;28;20230;-75
2024/02/25 07:23:43;;;;;;;0.83;0.50;;;;;;;;;;5045058;28;20305;-75
2024/02/25 07:26:13;;;;;;;0.30;0.30;;;;;;;;;;5027403;28;20219;-75
2024/02/25 07:28:40;;;;;;;0.30;0.30;;;;;;;;;;5026794;28;20310;-74
2024/02/25 07:31:18;;;;;;;0.30;0.30;;;;;;;;;;5049842;28;20471;-75
2024/02/25 07:33:46;;;;;;;0.30;0.30;;;;;;;;;;5045544;28;20228;-74
2024/02/25 07:36:15;;;;;;;0.60;0.60;;;;;;;;;;5049062;28;20306;-74
2024/02/25 07:38:42;;;;;;;0.30;0.30;;;;;;;;;;5042049;28;20220;-74
2024/02/25 07:41:10;;;;;;;0.30;0.30;;;;;;;;;;5057701;28;20215;-74
2024/02/25 07:43:40;;;;;;;0.30;0.30;;;;;;;;;;5033455;28;20249;-74
2024/02/25 07:46:07;;;;;;;0.30;0.30;;;;;;;;;;5052440;28;20227;-74
2024/02/25 07:48:34;;;;;;;0.37;0.37;;;;;;;;;;5027088;28;20224;-74
2024/02/25 07:51:01;;;;;;;1.60;1.07;;;;;;;;;;5050862;28;20280;-74
2024/02/25 07:53:28;;;;;;;0.33;0.33;;;;;;;;;;5053048;28;20239;-74
2024/02/25 07:55:54;;;;;;;0.30;0.30;;;;;;;;;;5068209;28;20230;-74
2024/02/25 07:58:21;;;;;;;0.40;0.40;;;;;;;;;;5052849;28;20682;-75
2024/02/25 08:00:48;;;;;;;0.30;0.30;;;;;;;;;;5048701;28;20239;-75
2024/02/25 08:03:15;;;;;;;0.30;0.30;;;;;;;;;;5032557;28;20246;-74
2024/02/25 08:05:43;;;;;;;0.50;0.50;;;;;;;;;;5031550;28;20771;-74
2024/02/25 08:08:09;;;;;;;0.30;0.30;;;;;;;;;;5049286;28;20241;-75
2024/02/25 08:10:41;;;;;;;0.30;0.30;;;;;;;;;;5053258;28;20582;-74
2024/02/25 08:13:08;;;;;;;0.30;0.30;;;;;;;;;;5046763;28;20231;-77
2024/02/25 08:15:34;;;;;;;0.30;0.30;;;;;;;;;;5028020;28;20228;-77
2024/02/25 08:18:00;;;;;;;0.30;0.30;;;;;;;;;;5047779;28;20236;-74
2024/02/25 08:20:27;;;;;;;0.30;0.30;;;;;;;;;;5038475;28;20581;-76
2024/02/25 08:22:54;;;;;;;0.30;0.30;;;;;;;;;;5038095;28;20227;-74
2024/02/25 08:25:20;;;;;;;0.30;0.30;;;;;;;;;;5035813;28;20233;-75
2024/02/25 08:27:47;;;;;;;0.30;0.30;;;;;;;;;;5048159;28;20232;-75
2024/02/25 08:30:14;;;;;;;0.30;0.30;;;;;;;;;;5033456;28;20228;-76
2024/02/25 08:32:40;;;;;;;0.30;0.30;;;;;;;;;;5042292;28;20314;-75
2024/02/25 08:35:07;;;;;;;0.30;0.30;;;;;;;;;;5046344;28;20234;-74
2024/02/25 08:37:34;;;;;;;0.40;0.40;;;;;;;;;;5062603;28;20231;-75
2024/02/25 08:40:00;;;;;;;0.20;0.20;;;;;;;;;;5087784;28;20258;-75
2024/02/25 08:42:27;;;;;;;0.30;0.30;;;;;;;;;;5069183;28;20226;-76
2024/02/25 08:44:53;;;;;;;0.43;0.43;;;;;;;;;;5047052;28;20227;-74
2024/02/25 08:47:20;;;;;;;0.30;0.30;;;;;;;;;;5045817;28;20773;-74
2024/02/25 08:49:46;;;;;;;0.30;0.30;;;;;;;;;;5043125;28;20244;-74
2024/02/25 08:52:13;;;;;;;0.30;0.30;;;;;;;;;;5048344;28;20227;-74
2024/02/25 08:54:39;;;;;;;0.30;0.30;;;;;;;;;;5042116;28;20237;-74
2024/02/25 08:57:06;;;;;;;0.30;0.30;;;;;;;;;;5045837;28;20243;-74
2024/02/25 08:59:33;;;;;;;0.20;0.20;;;;;;;;;;5056853;28;20219;-74
2024/02/25 09:02:04;;;;;;;0.40;0.40;;;;;;;;;;5047024;28;20234;-74
2024/02/25 09:04:31;;;;;;;0.30;0.30;;;;;;;;;;5050523;28;20269;-73
2024/02/25 09:07:01;;;;;;;0.30;0.30;;;;;;;;;;5044768;28;20317;-74
2024/02/25 09:09:28;;;;;;;0.30;0.30;;;;;;;;;;5046094;28;20223;-74
2024/02/25 09:11:54;;;;;;;0.30;0.30;;;;;;;;;;5044348;28;20710;-74
2024/02/25 09:14:21;;;;;;;0.27;0.27;;;;;;;;;;5044834;28;20719;-76
2024/02/25 09:16:51;;;;;;;0.30;0.30;;;;;;;;;;5046213;28;20232;-75
2024/02/25 09:19:17;;;;;;;0.30;0.30;;;;;;;;;;5039377;28;20242;-74
2024/02/25 09:21:47;;;;;;;0.30;0.30;;;;;;;;;;5047466;28;20658;-75
2024/02/25 09:24:14;;;;;;;0.30;0.30;;;;;;;;;;5035837;28;20220;-75
2024/02/25 09:26:45;;;;;;;0.30;0.30;;;;;;;;;;5048201;28;20258;-75
2024/02/25 09:29:12;;;;;;;0.30;0.30;;;;;;;;;;5041121;28;20224;-74
2024/02/25 09:31:42;;;;;;;0.40;0.40;;;;;;;;;;5042337;28;20318;-74
2024/02/25 09:34:11;;;;;;;0.30;0.30;;;;;;;;;;5040864;28;20311;-75
2024/02/25 09:36:38;;;;;;;0.30;0.30;;;;;;;;;;5045743;28;20273;-74
2024/02/25 09:39:05;;;;;;;0.30;0.30;;;;;;;;;;5045228;28;20331;-74
2024/02/25 09:41:39;;;;;;;0.30;0.30;;;;;;;;;;5038138;28;20231;-75
2024/02/25 09:44:22;;;;;;;0.30;0.30;;;;;;;;;;5040400;28;20242;-74
2024/02/25 09:46:51;;;;;;;0.30;0.30;;;;;;;;;;5046741;28;20935;-75
2024/02/25 09:49:24;;;;;;;0.30;0.30;;;;;;;;;;5043847;28;20219;-75
2024/02/25 09:51:51;;;;;;;0.30;0.30;;;;;;;;;;5043360;28;20224;-75
2024/02/25 09:54:18;;;;;;;0.30;0.30;;;;;;;;;;5050375;28;20233;-75
2024/02/25 09:56:49;;;;;;;0.30;0.30;;;;;;;;;;5037037;28;24937;-74
2024/02/25 09:59:17;;;;;;;0.30;0.30;;;;;;;;;;5032953;28;20222;-76
2024/02/25 10:01:47;;;;;;;0.30;0.30;;;;;;;;;;5035746;28;20302;-74
2024/02/25 10:04:14;;;;;;;0.30;0.30;;;;;;;;;;5034713;28;20242;-75
2024/02/25 10:06:42;;;;;;;0.33;0.33;;;;;;;;;;5033481;28;20216;-75
2024/02/25 10:09:11;;;;;;;0.30;0.30;;;;;;;;;;5034934;28;20230;-75
2024/02/25 10:11:40;;;;;;;0.20;0.20;;;;;;;;;;5013317;28;20349;-77
2024/02/25 10:14:07;;;;;;;0.30;0.30;;;;;;;;;;5018803;28;20227;-75
2024/02/25 10:16:33;;;;;;;0.30;0.30;;;;;;;;;;5055341;28;20804;-75
2024/02/25 10:19:00;;;;;;;0.30;0.30;;;;;;;;;;5068163;28;20614;-75
2024/02/25 10:21:26;;;;;;;0.30;0.30;;;;;;;;;;5061669;28;20584;-75
2024/02/25 10:23:54;;;;;;;0.47;0.47;;;;;;;;;;5042537;28;20231;-75
2024/02/25 10:26:25;;;;;;;0.30;0.30;;;;;;;;;;5057210;28;20742;-76
2024/02/25 10:29:05;;;;;;;0.30;0.30;;;;;;;;;;5056324;28;20238;-75
2024/02/25 10:31:33;;;;;;;0.30;0.30;;;;;;;;;;5055840;28;20280;-75
2024/02/25 10:34:00;;;;;;;0.30;0.30;;;;;;;;;;5063716;28;20231;-76
2024/02/25 10:36:27;;;;;;;0.30;0.30;;;;;;;;;;5044105;28;20226;-74
2024/02/25 10:38:57;;;;;;;0.30;0.30;;;;;;;;;;5018203;28;20228;-74
2024/02/25 10:41:25;;;;;;;0.20;0.20;;;;;;;;;;5048362;28;20227;-76
2024/02/25 10:43:56;;;;;;;0.30;0.30;;;;;;;;;;5051580;28;20231;-75
2024/02/25 10:46:42;;;;;;;0.30;0.30;;;;;;;;;;5057687;28;20251;-75
2024/02/25 10:49:12;;;;;;;0.30;0.30;;;;;;;;;;5034544;28;20231;-74
2024/02/25 10:51:39;;;;;;;0.40;0.40;;;;;;;;;;5023653;28;20227;-75
2024/02/25 10:54:09;;;;;;;0.30;0.30;;;;;;;;;;5030035;28;20243;-74
2024/02/25 10:56:39;;;;;;;0.20;0.20;;;;;;;;;;5049098;28;20314;-75
2024/02/25 10:59:08;;;;;;;0.30;0.30;;;;;;;;;;5028663;28;20254;-74
2024/02/25 11:01:38;;;;;;;0.30;0.30;;;;;;;;;;5037369;28;20224;-75
2024/02/25 11:04:06;;;;;;;0.30;0.30;;;;;;;;;;5042075;28;20227;-75
2024/02/25 11:06:37;;;;;;;0.30;0.30;;;;;;;;;;5044177;28;20339;-75
2024/02/25 11:09:15;;;;;;;0.30;0.30;;;;;;;;;;5020085;28;20300;-75
2024/02/25 11:11:43;;;;;;;0.30;0.30;;;;;;;;;;5039834;28;20738;-75
2024/02/25 11:14:32;;;;;;;0.30;0.30;;;;;;;;;;5027431;28;20281;-75
2024/02/25 11:16:59;;;;;;;0.30;0.30;;;;;;;;;;5040184;28;20223;-74
2024/02/25 11:19:26;;;;;;;0.43;0.43;;;;;;;;;;5048643;28;20726;-75
2024/02/25 11:21:54;;;;;;;0.30;0.30;;;;;;;;;;5061096;28;20242;-76
2024/02/25 11:24:43;;;;;;;0.30;0.30;;;;;;;;;;5070087;28;20227;-76
2024/02/25 11:27:10;;;;;;;0.30;0.30;;;;;;;;;;5080429;28;20323;-76
2024/02/25 11:29:38;;;;;;;0.20;0.20;;;;;;;;;;5032268;28;20227;-76
2024/02/25 11:32:04;;;;;;;0.30;0.30;;;;;;;;;;5040287;28;20223;-75
2024/02/25 11:34:34;;;;;;;0.30;0.30;;;;;;;;;;5040786;28;20243;-75
2024/02/25 11:37:03;;;;;;;0.30;0.30;;;;;;;;;;5054692;28;20223;-75
2024/02/25 11:39:31;;;;;;;0.30;0.30;;;;;;;;;;5051818;28;20218;-75
2024/02/25 11:42:03;;;;;;;0.40;0.40;;;;;;;;;;5061897;28;20235;-79
2024/02/25 11:44:32;;;;;;;0.30;0.30;;;;;;;;;;5073396;28;20219;-78
2024/02/25 11:47:00;;;;;;;0.30;0.30;;;;;;;;;;5073354;28;20221;-78
2024/02/25 11:49:28;;;;;;;0.30;0.30;;;;;;;;;;5067362;28;20215;-78
2024/02/25 11:51:56;;;;;;;0.20;0.20;;;;;;;;;;5067708;28;20285;-78
2024/02/25 11:54:23;;;;;;;0.30;0.30;;;;;;;;;;5062221;28;20231;-78
2024/02/25 11:56:51;;;;;;;0.30;0.30;;;;;;;;;;5043323;28;20693;-78
2024/02/25 11:59:20;;;;;;;0.30;0.30;;;;;;;;;;5032389;28;20708;-79
2024/02/25 12:01:48;;;;;;;0.30;0.30;;;;;;;;;;5057495;28;20243;-79
2024/02/25 12:04:16;;;;;;;0.30;0.30;;;;;;;;;;5064442;28;20227;-79
2024/02/25 12:06:43;;;;;;;0.30;0.30;;;;;;;;;;5063753;28;20228;-78
2024/02/25 12:09:13;;;;;;;0.52;0.52;;;;;;;;;;5068085;28;20776;-79
2024/02/25 12:11:40;;;;;;;0.30;0.30;;;;;;;;;;5065359;28;20215;-78
2024/02/25 12:14:13;;;;;;;0.30;0.30;;;;;;;;;;5071689;28;20706;-78
2024/02/25 12:16:40;;;;;;;0.30;0.30;;;;;;;;;;5050622;28;20233;-76
2024/02/25 12:19:09;;;;;;;0.30;0.30;;;;;;;;;;5050241;28;20726;-78
2024/02/25 12:21:37;;;;;;;0.40;0.40;;;;;;;;;;5061319;28;20707;-75
2024/02/25 12:24:05;;;;;;;0.30;0.30;;;;;;;;;;5048809;28;20218;-76
2024/02/25 12:27:17;;;;;;;0.30;0.30;;;;;;;;;;5064694;28;20231;-76
2024/02/25 12:29:50;;;;;;;0.30;0.30;;;;;;;;;;4996338;28;20230;-76
2024/02/25 12:32:18;;;;;;;0.30;0.30;;;;;;;;;;4970604;28;20232;-76
2024/02/25 12:34:46;;;;;;;0.50;0.50;;;;;;;;;;5025549;28;20235;-75
2024/02/25 12:37:14;;;;;;;0.30;0.30;;;;;;;;;;5023318;28;20249;-75
2024/02/25 12:39:40;;;;;;;0.50;0.50;;;;;;;;;;5035585;28;20697;-75
2024/02/25 12:42:09;;;;;;;0.30;0.30;;;;;;;;;;5061608;28;20219;-75
2024/02/25 12:44:35;;;;;;;0.30;0.30;;;;;;;;;;5055418;28;20719;-75
2024/02/25 12:47:03;;;;;;;0.30;0.30;;;;;;;;;;5076027;28;20718;-75
2024/02/25 12:49:29;;;;;;;0.30;0.30;;;;;;;;;;5055868;28;20769;-75
2024/02/25 12:51:56;;;;;;;0.30;0.30;;;;;;;;;;5035558;28;20237;-75
2024/02/25 12:54:23;;;;;;;0.82;0.82;;;;;;;;;;5021711;28;20704;-77
2024/02/25 12:56:49;;;;;;;0.30;0.30;;;;;;;;;;5042141;28;20240;-75
2024/02/25 12:59:16;;;;;;;0.25;0.25;;;;;;;;;;5038612;28;20805;-75
2024/02/25 13:01:43;;;;;;;0.30;0.30;;;;;;;;;;5026491;28;20285;-76
2024/02/25 13:04:10;;;;;;;0.30;0.30;;;;;;;;;;5029360;28;20316;-77
2024/02/25 13:06:37;;;;;;;0.30;0.30;;;;;;;;;;5044359;28;20235;-76
2024/02/25 13:09:07;;;;;;;0.30;0.30;;;;;;;;;;5032590;28;20251;-76
2024/02/25 13:11:34;;;;;;;0.30;0.30;;;;;;;;;;5021730;28;20631;-84
2024/02/25 13:14:01;;;;;;;0.30;0.30;;;;;;;;;;5027151;28;20223;-87
2024/02/25 13:16:28;;;;;;;0.50;0.50;;;;;;;;;;5030950;28;20226;-86
2024/02/25 13:18:55;;;;;;;0.30;0.30;;;;;;;;;;5029578;28;20264;-84
2024/02/25 13:21:23;;;;;;;0.35;0.35;;;;;;;;;;5032174;28;20235;-86
2024/02/25 13:23:49;;;;;;;0.30;0.30;;;;;;;;;;5029630;28;20251;-83
2024/02/25 13:26:16;;;;;;;0.30;0.30;;;;;;;;;;5041733;28;20228;-80
2024/02/25 13:28:44;;;;;;;0.30;0.30;;;;;;;;;;5048781;28;20234;-82
2024/02/25 13:31:11;;;;;;;0.30;0.30;;;;;;;;;;5047599;28;20223;-81
2024/02/25 13:33:37;;;;;;;0.30;0.30;;;;;;;;;;5048930;28;20226;-81
2024/02/25 13:36:04;;;;;;;0.30;0.30;;;;;;;;;;5053966;28;20220;-80
2024/02/25 13:38:31;;;;;;;0.40;0.40;;;;;;;;;;5040629;28;20899;-76
2024/02/25 13:40:58;;;;;;;0.45;0.45;;;;;;;;;;5040279;28;20710;-76
2024/02/25 13:43:26;;;;;;;0.30;0.30;;;;;;;;;;5036979;28;20243;-77
2024/02/25 13:45:53;;;;;;;0.30;0.30;;;;;;;;;;5046428;28;20228;-79
2024/02/25 13:48:22;;;;;;;0.30;0.30;;;;;;;;;;5043226;28;20223;-82
2024/02/25 13:50:49;;;;;;;0.30;0.30;;;;;;;;;;5044201;28;20700;-84
2024/02/25 13:53:16;;;;;;;0.30;0.30;;;;;;;;;;5049413;28;20293;-82
2024/02/25 13:55:44;;;;;;;0.30;0.30;;;;;;;;;;5051491;28;20216;-77
2024/02/25 13:58:12;;;;;;;0.40;0.40;;;;;;;;;;5049270;28;20226;-78
2024/02/25 14:00:39;;;;;;;0.30;0.30;;;;;;;;;;5050921;28;20244;-80
2024/02/25 14:03:05;;;;;;;0.30;0.30;;;;;;;;;;5044353;28;20726;-76
2024/02/25 14:05:42;;;;;;;0.38;0.38;;;;;;;;;;5065747;28;20222;-77
2024/02/25 14:08:09;;;;;;;0.30;0.30;;;;;;;;;;5068140;28;20210;-75
2024/02/25 14:10:36;;;;;;;0.30;0.30;;;;;;;;;;5073404;28;20311;-82
2024/02/25 14:13:02;;;;;;;0.30;0.30;;;;;;;;;;5054001;28;20238;-79
2024/02/25 14:15:28;;;;;;;0.30;0.30;;;;;;;;;;5037581;28;20223;-77
2024/02/25 14:17:58;;;;;;;0.30;0.30;;;;;;;;;;5022903;28;20305;-77
2024/02/25 14:20:33;;;;;;;0.55;0.55;;;;;;;;;;5040253;28;20661;-78
2024/02/25 14:23:01;;;;;;;0.30;0.30;;;;;;;;;;5073440;28;20249;-77
2024/02/25 14:25:27;;;;;;;0.38;0.38;;;;;;;;;;5045226;28;20306;-78
2024/02/25 14:27:54;;;;;;;0.52;0.52;;;;;;;;;;5050392;28;20262;-81
2024/02/25 14:30:21;;;;;;;0.50;0.50;;;;;;;;;;5035047;28;20224;-76
2024/02/25 14:32:47;;;;;;;0.40;0.40;;;;;;;;;;5046308;28;20322;-76
2024/02/25 14:35:14;;;;;;;0.40;0.40;;;;;;;;;;5056130;28;20242;-77
2024/02/25 14:37:42;;;;;;;0.35;0.35;;;;;;;;;;5041515;28;20227;-86
2024/02/25 14:40:09;;;;;;;0.30;0.30;;;;;;;;;;5036455;28;20610;-75
2024/02/25 14:42:35;;;;;;;0.40;0.40;;;;;;;;;;5045917;28;20235;-78
2024/02/25 14:45:03;;;;;;;0.55;0.55;;;;;;;;;;5056424;28;20227;-78
2024/02/25 14:47:30;;;;;;;1.05;1.05;;;;;;;;;;5035569;28;20235;-78